Terminal Aerodrome Forecast
Issued by NWS Wilmington, OH

Current Version | Previous Version | Graphics & Text | Print | Product List | Glossary On
Versions: 1 2 3 4 5 6 7 8 9 10 11 12 13 14 15 16 17
000
FTUS41 KILN 152003 AAA
TAFDAY
TAF AMD
KDAY 152003Z 1520/1618 29018G28KT P6SM OVC025
      TEMPO 1520/1522 -SHRA OVC015
     FM160000 32014KT P6SM OVC025
     FM160700 33008KT P6SM BKN040=

USA.gov is the U.S. government's official web portal to all federal, state and local government web resources and services.